TRAVEL WEATHER INFO - USA

NOAA Site Locator - Search for Station Information

CITY Forecast Link METAR Identifier Last Updated Temperature Dew Point Humidity Pressure Wind Direction Wind Speed Wind Gust Weather Rain/hr Google Maps
Albuqueque WEATHER KABQ 04/20/2018 02:52 59.0 28.4 31 29.88 ESE 27 34 Overcast --- Albuquerque, NM Map
Anchorage WEATHER PAED 04/20/2018 02:56 37.4 24.8 60 29.34 N 0 0 Few Clouds --- Anchorage, AK Map
Atlanta WEATHER KATL 04/20/2018 02:52 46.4 33.8 61 30.19 N 8 8 Few Clouds --- ATLANTA, GA Map
Birmingham WEATHER KBHM 04/20/2018 02:53 44.6 33.8 66 30.25 N 9 9 Clear --- Birmingham, AL Map
Boston WEATHER KBOS 04/20/2018 02:54 37.4 28.4 70 29.86 W 16 16 Overcast --- BOSTON, MA Map
Cheyenne WEATHER KCYS 04/20/2018 01:53 39.2 24.8 56 30.02 SE 21 33 Clear --- Cheyenne, WY Map
Chicago O'Hare WEATHER KORD 04/20/2018 02:51 37.4 23.0 56 30.43 WNW 4 4 Clear --- CHICAGO, IL Map
Colorado Springs WEATHER KCOS 04/20/2018 01:54 46.4 21.2 36 30.01 ENE 12 12 Broken Clouds --- Colo. Springs, CO Map
Dallas WEATHER KADS 04/20/2018 03:15 53.6 37.4 54 30.27 ENE 5 5 Clear --- Dallas, TX Map
Denver WEATHER KDEN 04/20/2018 01:53 48.2 21.2 34 29.95 SE 14 14 Broken Clouds --- DENVER, CO Map
Detroit WEATHER KDET 04/20/2018 02:53 35.6 24.8 64 30.35 NW 4 4 Clear --- Detroit, MI Map
Dover WEATHER KDOV 04/20/2018 02:56 39.2 24.8 56 30.14 W 8 8 Few Clouds --- DOVER, DE Map
Fort Lauderdale WEATHER KFXE 04/20/2018 02:53 69.8 66.2 88 30.06 WSW 3 3 Clear --- Fort Lauderdale, FL Map
Honolulu WEATHER PHNL 04/20/2018 02:53 75.2 66.2 74 30.06 NE 5 5 Few Clouds --- Honolulu, HI Map
JFK Airport WEATHER KJFK 04/20/2018 02:51 37.4 23.0 56 30.04 W 18 25 Few Clouds --- JFK Airport, NYC Map
Key West WEATHER KEYW 04/20/2018 02:53 71.6 66.2 83 30.08 N 0 0 Clear --- Key West, FL Map
Los Angeles WEATHER KLAX 04/20/2018 02:53 55.4 48.2 77 30.04 N 4 4 Clear --- Los Angeles, CA Map
Louisville WEATHER KSDF 04/20/2018 02:56 44.6 24.8 45 30.37 N 9 20 Clear --- Louisville, KY Map
Minneapolis WEATHER KMSP 04/20/2018 02:53 35.6 26.6 69 30.47 SW 4 4 Clear --- Minneapolis, MN Map
Morgantown WEATHER KMGW 04/20/2018 01:53 35.6 21.2 55 30.27 NNW 5 5 Clear --- Morgantown, WV Map
New Orleans WEATHER KNEW 04/20/2018 02:53 59.0 46.4 63 30.20 NNE 18 18 Clear --- New Orleans, LA Map
New York City WEATHER KNYC 04/20/2018 02:51 37.4 23.0 56 30.05 WNW 9 9 Few Clouds --- New York, NY Map
Omaha WEATHER KOMA 04/20/2018 02:52 39.2 26.6 60 30.44 SSW 3 3 Clear --- Omaha, NE Map
Philadelphia WEATHER KPHL 04/20/2018 02:54 39.2 21.2 48 30.13 NW 14 23 Scattered Clouds --- Philadelphia, PA Map
Pittsburgh WEATHER KPIT 04/20/2018 02:51 30.2 21.2 69 30.26 W 5 5 Clear --- Pittsburgh, PA Map
Seattle WEATHER KSEA 04/20/2018 01:53 51.8 35.6 54 30.26 N 10 10 Few Clouds --- Seattle, WA Map
San Francisco WEATHER KSFO 04/20/2018 02:56 53.6 46.4 77 30.14 WNW 3 3 Few Clouds --- San Francisco, CA Map
Washington DC WEATHER KDCA 04/20/2018 02:52 42.8 21.2 42 30.21 NNW 14 14 Clear --- Washington, DC Map